sensor_id;sensor_type;location;lat;lon;timestamp;P1;durP1;ratioP1;P2;durP2;ratioP2
21517;SDS011;61765;45.794;24.150;2023-03-31T00:00:54;18.75;;;11.43;;
21517;SDS011;61765;45.794;24.150;2023-03-31T00:09:01;19.55;;;10.55;;
21517;SDS011;61765;45.794;24.150;2023-03-31T00:17:10;18.95;;;10.10;;
21517;SDS011;61765;45.794;24.150;2023-03-31T00:25:15;15.75;;;8.25;;
21517;SDS011;61765;45.794;24.150;2023-03-31T00:33:24;15.30;;;8.35;;
21517;SDS011;61765;45.794;24.150;2023-03-31T00:41:31;16.63;;;8.55;;
21517;SDS011;61765;45.794;24.150;2023-03-31T00:49:39;10.25;;;6.72;;
21517;SDS011;61765;45.794;24.150;2023-03-31T00:57:48;12.75;;;6.90;;
21517;SDS011;61765;45.794;24.150;2023-03-31T01:06:00;11.38;;;6.65;;
21517;SDS011;61765;45.794;24.150;2023-03-31T01:14:11;8.35;;;4.85;;
21517;SDS011;61765;45.794;24.150;2023-03-31T01:31:04;9.13;;;4.82;;
21517;SDS011;61765;45.794;24.150;2023-03-31T01:48:06;7.90;;;4.78;;
21517;SDS011;61765;45.794;24.150;2023-03-31T01:56:23;6.60;;;4.03;;
21517;SDS011;61765;45.794;24.150;2023-03-31T02:04:35;10.95;;;5.15;;
21517;SDS011;61765;45.794;24.150;2023-03-31T02:12:46;8.45;;;4.70;;
21517;SDS011;61765;45.794;24.150;2023-03-31T02:20:53;6.35;;;4.80;;
21517;SDS011;61765;45.794;24.150;2023-03-31T02:29:04;13.43;;;5.13;;
21517;SDS011;61765;45.794;24.150;2023-03-31T02:37:10;9.32;;;4.45;;
21517;SDS011;61765;45.794;24.150;2023-03-31T02:53:55;8.93;;;5.03;;
21517;SDS011;61765;45.794;24.150;2023-03-31T03:02:31;7.35;;;4.93;;
21517;SDS011;61765;45.794;24.150;2023-03-31T03:10:50;8.07;;;4.38;;
21517;SDS011;61765;45.794;24.150;2023-03-31T03:19:08;9.88;;;4.63;;
21517;SDS011;61765;45.794;24.150;2023-03-31T03:27:14;10.98;;;5.00;;
21517;SDS011;61765;45.794;24.150;2023-03-31T03:35:22;9.00;;;4.35;;
21517;SDS011;61765;45.794;24.150;2023-03-31T03:43:29;9.20;;;5.15;;
21517;SDS011;61765;45.794;24.150;2023-03-31T03:51:37;8.90;;;4.75;;
21517;SDS011;61765;45.794;24.150;2023-03-31T03:59:42;8.77;;;5.22;;
21517;SDS011;61765;45.794;24.150;2023-03-31T04:07:50;9.68;;;4.80;;
21517;SDS011;61765;45.794;24.150;2023-03-31T04:15:56;8.85;;;4.82;;
21517;SDS011;61765;45.794;24.150;2023-03-31T04:24:04;7.20;;;4.50;;
21517;SDS011;61765;45.794;24.150;2023-03-31T04:32:12;11.98;;;5.78;;
21517;SDS011;61765;45.794;24.150;2023-03-31T04:40:25;8.98;;;5.38;;
21517;SDS011;61765;45.794;24.150;2023-03-31T04:48:30;8.90;;;5.45;;
21517;SDS011;61765;45.794;24.150;2023-03-31T04:56:38;11.48;;;5.95;;
21517;SDS011;61765;45.794;24.150;2023-03-31T05:04:44;10.57;;;5.38;;
21517;SDS011;61765;45.794;24.150;2023-03-31T05:12:52;12.05;;;5.90;;
21517;SDS011;61765;45.794;24.150;2023-03-31T05:21:06;12.23;;;6.78;;
21517;SDS011;61765;45.794;24.150;2023-03-31T05:29:16;11.38;;;6.72;;
21517;SDS011;61765;45.794;24.150;2023-03-31T05:37:21;12.77;;;7.20;;
21517;SDS011;61765;45.794;24.150;2023-03-31T05:45:30;12.52;;;7.38;;
21517;SDS011;61765;45.794;24.150;2023-03-31T05:53:36;14.18;;;8.55;;
21517;SDS011;61765;45.794;24.150;2023-03-31T06:01:45;17.58;;;9.27;;
21517;SDS011;61765;45.794;24.150;2023-03-31T06:09:51;18.50;;;10.25;;
21517;SDS011;61765;45.794;24.150;2023-03-31T06:17:59;14.05;;;8.70;;
21517;SDS011;61765;45.794;24.150;2023-03-31T06:26:05;17.40;;;9.70;;
21517;SDS011;61765;45.794;24.150;2023-03-31T06:34:15;14.80;;;9.20;;
21517;SDS011;61765;45.794;24.150;2023-03-31T06:42:22;13.38;;;8.95;;
21517;SDS011;61765;45.794;24.150;2023-03-31T06:50:30;14.57;;;8.32;;
21517;SDS011;61765;45.794;24.150;2023-03-31T06:58:35;17.90;;;10.73;;
21517;SDS011;61765;45.794;24.150;2023-03-31T07:06:43;18.10;;;9.82;;
21517;SDS011;61765;45.794;24.150;2023-03-31T07:14:49;16.00;;;9.77;;
21517;SDS011;61765;45.794;24.150;2023-03-31T07:22:57;13.68;;;9.13;;
21517;SDS011;61765;45.794;24.150;2023-03-31T07:31:09;15.57;;;9.07;;
21517;SDS011;61765;45.794;24.150;2023-03-31T07:39:17;14.93;;;7.38;;
21517;SDS011;61765;45.794;24.150;2023-03-31T07:47:23;12.98;;;8.63;;
21517;SDS011;61765;45.794;24.150;2023-03-31T07:55:31;14.80;;;7.68;;
21517;SDS011;61765;45.794;24.150;2023-03-31T08:03:37;15.18;;;8.30;;
21517;SDS011;61765;45.794;24.150;2023-03-31T08:11:45;10.48;;;7.60;;
21517;SDS011;61765;45.794;24.150;2023-03-31T08:19:50;13.27;;;7.78;;
21517;SDS011;61765;45.794;24.150;2023-03-31T08:27:59;14.80;;;9.05;;
21517;SDS011;61765;45.794;24.150;2023-03-31T08:36:04;16.70;;;8.80;;
21517;SDS011;61765;45.794;24.150;2023-03-31T23:45:59;13.45;;;10.13;;
21517;SDS011;61765;45.794;24.150;2023-03-31T23:54:07;12.30;;;8.68;;
